createdAt,value
2023-02-19T00:00:06.331Z,9.457241
2023-02-19T00:01:06.298Z,9.457131
2023-02-19T00:02:06.283Z,9.457170
2023-02-19T00:03:06.314Z,9.457143
2023-02-19T00:04:06.291Z,9.457154
2023-02-19T00:05:06.321Z,9.457144
2023-02-19T00:06:06.238Z,9.457081
2023-02-19T00:07:06.231Z,9.457328
2023-02-19T00:08:06.228Z,9.457302
2023-02-19T00:09:06.236Z,9.457203
2023-02-19T00:10:06.201Z,9.457248
2023-02-19T00:11:06.195Z,9.457694
2023-02-19T00:12:06.292Z,9.457470
2023-02-19T00:13:06.173Z,9.457282
2023-02-19T00:14:06.221Z,9.457259
2023-02-19T00:15:06.151Z,9.456877
2023-02-19T00:16:06.237Z,9.456743
2023-02-19T00:17:06.160Z,9.457288
2023-02-19T00:18:06.136Z,9.457588
2023-02-19T00:19:06.141Z,9.457287
2023-02-19T00:20:06.103Z,9.457155
2023-02-19T00:21:06.101Z,9.456924
2023-02-19T00:22:06.085Z,9.457068
2023-02-19T00:23:06.080Z,9.457525
2023-02-19T00:24:06.156Z,9.457133
2023-02-19T00:25:06.092Z,9.457034
2023-02-19T00:26:17.514Z,9.457133
2023-02-19T00:27:08.031Z,9.457243
2023-02-19T00:28:06.051Z,9.457323
2023-02-19T00:29:06.047Z,9.457251
2023-02-19T00:30:06.028Z,9.457287
2023-02-19T00:31:06.131Z,9.456979
2023-02-19T00:32:06.031Z,9.457115
2023-02-19T00:33:05.978Z,9.457161
2023-02-19T00:34:06.037Z,9.457089
2023-02-19T00:35:05.970Z,9.457089
2023-02-19T00:36:05.963Z,9.457368
2023-02-19T00:37:05.941Z,9.457246
2023-02-19T00:38:05.937Z,9.457356
2023-02-19T00:39:05.948Z,9.457210
2023-02-19T00:40:05.950Z,9.457056
2023-02-19T00:41:05.907Z,9.457157
2023-02-19T00:42:05.900Z,9.457057
2023-02-19T00:43:05.885Z,9.457106
2023-02-19T00:44:05.907Z,9.456912
2023-02-19T00:45:05.880Z,9.457018
2023-02-19T00:46:05.884Z,9.457138
2023-02-19T00:47:05.851Z,9.456950
2023-02-19T00:48:05.838Z,9.457487
2023-02-19T00:49:05.909Z,9.457252
2023-02-19T00:50:05.820Z,9.457376
2023-02-19T00:51:05.810Z,9.457180
2023-02-19T00:52:05.803Z,9.457211
2023-02-19T00:53:05.799Z,9.457198
2023-02-19T00:54:05.876Z,9.457201
2023-02-19T00:55:05.766Z,9.457153
2023-02-19T00:56:05.764Z,9.457230
2023-02-19T00:57:05.749Z,9.457182
2023-02-19T00:58:05.749Z,9.457158
2023-02-19T00:59:05.761Z,9.457165
2023-02-19T01:00:05.722Z,9.457027
2023-02-19T01:01:05.757Z,9.457046
2023-02-19T01:02:05.705Z,9.457143
2023-02-19T01:03:05.694Z,9.457207
2023-02-19T01:04:06.879Z,9.457230
2023-02-19T01:05:06.675Z,9.457076
2023-02-19T01:06:05.663Z,9.457056
2023-02-19T01:07:05.651Z,9.457247
2023-02-19T01:08:05.648Z,9.457288
2023-02-19T01:09:05.650Z,9.457303
2023-02-19T01:10:05.623Z,9.457205
2023-02-19T01:11:05.616Z,9.457237
2023-02-19T01:12:05.600Z,9.457236
2023-02-19T01:13:05.590Z,9.457279
2023-02-19T01:14:05.596Z,9.457242
2023-02-19T01:15:05.583Z,9.457371
2023-02-19T01:16:05.624Z,9.457309
2023-02-19T01:17:05.560Z,9.457308
2023-02-19T01:18:05.552Z,9.457273
2023-02-19T01:19:05.552Z,9.457375
2023-02-19T01:20:05.524Z,9.457285
2023-02-19T01:21:05.518Z,9.457118
2023-02-19T01:22:05.512Z,9.457184
2023-02-19T01:23:05.488Z,9.457258
2023-02-19T01:24:05.515Z,9.457276
2023-02-19T01:25:05.478Z,9.457226
2023-02-19T01:26:05.459Z,9.457217
2023-02-19T01:27:05.460Z,9.457335
2023-02-19T01:28:05.447Z,9.457168
2023-02-19T01:29:05.463Z,9.457187
2023-02-19T01:30:05.469Z,9.457210
2023-02-19T01:31:05.535Z,9.457295
2023-02-19T01:32:05.518Z,9.457234
2023-02-19T01:33:05.393Z,9.457192
2023-02-19T01:34:05.418Z,9.457259
2023-02-19T01:35:05.375Z,9.457232
2023-02-19T01:36:05.361Z,9.457329
2023-02-19T01:37:05.353Z,9.457191
2023-02-19T01:38:05.402Z,9.457260
2023-02-19T01:39:05.362Z,9.457276
2023-02-19T01:40:05.335Z,9.457275
2023-02-19T01:41:05.329Z,9.457191
2023-02-19T01:42:05.308Z,9.457271
2023-02-19T01:43:05.300Z,9.457256
2023-02-19T01:44:05.308Z,9.457302
2023-02-19T01:45:05.284Z,9.457360
2023-02-19T01:46:05.271Z,9.457241
2023-02-19T01:47:05.276Z,9.457233
2023-02-19T01:48:05.249Z,9.457308
2023-02-19T01:49:05.281Z,9.457262
2023-02-19T01:50:05.224Z,9.457263
2023-02-19T01:51:05.219Z,9.457206
2023-02-19T01:52:05.230Z,9.457279
2023-02-19T01:53:05.197Z,9.457323
2023-02-19T01:54:05.224Z,9.457313
2023-02-19T01:55:05.198Z,9.457168
2023-02-19T01:56:05.171Z,9.456946
2023-02-19T01:57:05.187Z,9.457090
2023-02-19T01:58:05.161Z,9.457396
2023-02-19T01:59:05.165Z,9.457550
2023-02-19T02:00:05.139Z,9.457508
2023-02-19T02:01:05.242Z,9.457461
2023-02-19T02:02:05.166Z,9.457402
2023-02-19T02:03:05.104Z,9.457371
2023-02-19T02:04:05.114Z,9.457407
2023-02-19T02:05:05.084Z,9.457502
2023-02-19T02:06:05.079Z,9.457469
2023-02-19T02:07:05.066Z,9.457562
2023-02-19T02:08:05.058Z,9.457288
2023-02-19T02:09:05.078Z,9.456836
2023-02-19T02:10:05.062Z,9.457048
2023-02-19T02:11:05.024Z,9.457079
2023-02-19T02:12:05.014Z,9.457050
2023-02-19T02:13:05.058Z,9.457095
2023-02-19T02:14:05.002Z,9.457047
2023-02-19T02:15:05.134Z,9.457028
2023-02-19T02:16:05.022Z,9.456873
2023-02-19T02:17:04.963Z,9.456704
2023-02-19T02:18:04.974Z,9.456909
2023-02-19T02:19:04.989Z,9.457147
2023-02-19T02:20:04.935Z,9.457256
2023-02-19T02:21:04.926Z,9.457251
2023-02-19T02:22:04.927Z,9.457271
2023-02-19T02:23:04.915Z,9.457333
2023-02-19T02:24:04.933Z,9.457189
2023-02-19T02:25:04.885Z,9.457174
2023-02-19T02:26:04.881Z,9.457207
2023-02-19T02:27:04.869Z,9.457197
2023-02-19T02:28:04.872Z,9.457160
2023-02-19T02:29:04.885Z,9.456990
2023-02-19T02:30:04.890Z,9.457221
2023-02-19T02:31:04.912Z,9.457025
2023-02-19T02:32:04.862Z,9.457229
2023-02-19T02:33:04.813Z,9.457271
2023-02-19T02:34:04.802Z,9.457284
2023-02-19T02:35:04.828Z,9.457087
2023-02-19T02:36:04.820Z,9.457253
2023-02-19T02:37:04.766Z,9.457250
2023-02-19T02:38:04.775Z,9.457191
2023-02-19T02:39:04.772Z,9.457188
2023-02-19T02:40:04.763Z,9.457222
2023-02-19T02:41:04.742Z,9.457117
2023-02-19T02:42:04.760Z,9.456933
2023-02-19T02:43:04.734Z,9.457018
2023-02-19T02:44:04.743Z,9.457491
2023-02-19T02:45:04.697Z,9.457127
2023-02-19T02:46:05.758Z,9.457140
2023-02-19T02:47:04.683Z,9.457275
2023-02-19T02:48:04.667Z,9.457287
2023-02-19T02:49:04.683Z,9.457150
2023-02-19T02:50:04.711Z,9.457320
2023-02-19T02:51:04.646Z,9.456804
2023-02-19T02:52:04.635Z,9.456724
2023-02-19T02:53:04.626Z,9.457154
2023-02-19T02:54:04.626Z,9.457339
2023-02-19T02:55:04.606Z,9.456986
2023-02-19T02:56:04.585Z,9.457124
2023-02-19T02:57:04.590Z,9.457102
2023-02-19T02:58:04.573Z,9.457163
2023-02-19T02:59:04.604Z,9.457143
2023-02-19T03:00:04.572Z,9.457190
2023-02-19T03:01:04.580Z,9.457124
2023-02-19T03:02:04.581Z,9.457261
2023-02-19T03:03:04.528Z,9.457259
2023-02-19T03:04:04.547Z,9.457181
2023-02-19T03:05:04.511Z,9.457138
2023-02-19T03:06:04.499Z,9.457002
2023-02-19T03:07:04.496Z,9.457197
2023-02-19T03:08:04.489Z,9.457219
2023-02-19T03:09:04.466Z,9.457178
2023-02-19T03:10:04.487Z,9.457221
2023-02-19T03:11:04.445Z,9.457271
2023-02-19T03:12:04.468Z,9.457207
2023-02-19T03:13:04.430Z,9.457277
2023-02-19T03:14:04.417Z,9.457277
2023-02-19T03:15:04.420Z,9.457330
2023-02-19T03:16:04.486Z,9.456845
2023-02-19T03:17:04.423Z,9.457038
2023-02-19T03:18:04.380Z,9.457068
2023-02-19T03:19:04.381Z,9.457089
2023-02-19T03:20:04.368Z,9.457185
2023-02-19T03:21:04.357Z,9.456950
2023-02-19T03:22:04.358Z,9.457109
2023-02-19T03:23:04.333Z,9.457033
2023-02-19T03:24:04.322Z,9.457015
2023-02-19T03:25:04.305Z,9.456979
2023-02-19T03:26:04.311Z,9.457114
2023-02-19T03:27:04.312Z,9.457159
2023-02-19T03:28:04.281Z,9.457095
2023-02-19T03:29:04.286Z,9.457032
2023-02-19T03:30:04.330Z,9.457003
2023-02-19T03:31:05.281Z,9.457025
2023-02-19T03:32:04.372Z,9.457129
2023-02-19T03:33:04.229Z,9.457029
2023-02-19T03:34:04.217Z,9.457047
2023-02-19T03:35:04.231Z,9.457111
2023-02-19T03:36:04.198Z,9.457304
2023-02-19T03:37:04.189Z,9.457108
2023-02-19T03:38:04.183Z,9.457310
2023-02-19T03:39:04.174Z,9.457306
2023-02-19T03:40:04.180Z,9.457039
2023-02-19T03:41:04.150Z,9.456961
2023-02-19T03:42:04.164Z,9.457056
2023-02-19T03:43:30.028Z,9.457039
2023-02-19T03:44:04.120Z,9.457140
2023-02-19T03:45:04.131Z,9.457192
2023-02-19T03:46:04.184Z,9.457247
2023-02-19T03:47:04.098Z,9.457207
2023-02-19T03:48:04.102Z,9.457134
2023-02-19T03:49:04.080Z,9.457151
2023-02-19T03:50:04.085Z,9.457088
2023-02-19T03:51:04.054Z,9.457127
2023-02-19T03:52:04.039Z,9.456979
2023-02-19T03:53:04.034Z,9.457064
2023-02-19T03:54:04.036Z,9.457053
2023-02-19T03:55:04.116Z,9.457218
2023-02-19T03:56:04.001Z,9.457397
2023-02-19T03:57:03.984Z,9.457253
2023-02-19T03:58:04.979Z,9.457236
2023-02-19T03:59:03.972Z,9.456983
2023-02-19T04:00:03.998Z,9.457114
2023-02-19T04:01:03.957Z,9.457227
2023-02-19T04:02:03.949Z,9.457343
2023-02-19T04:03:03.956Z,9.457367
2023-02-19T04:04:03.926Z,9.457283
2023-02-19T04:05:03.939Z,9.457183
2023-02-19T04:06:03.904Z,9.457026
2023-02-19T04:07:03.913Z,9.457101
2023-02-19T04:08:03.894Z,9.457177
2023-02-19T04:09:03.880Z,9.457126
2023-02-19T04:10:03.883Z,9.457167
2023-02-19T04:11:03.856Z,9.457273
2023-02-19T04:12:03.866Z,9.457178
2023-02-19T04:13:03.845Z,9.457317
2023-02-19T04:14:03.848Z,9.457183
2023-02-19T04:15:03.859Z,9.457204
2023-02-19T04:16:03.846Z,9.457245
2023-02-19T04:17:03.815Z,9.457148
2023-02-19T04:18:03.803Z,9.457299
2023-02-19T04:19:03.787Z,9.457223
2023-02-19T04:20:03.805Z,9.457186
2023-02-19T04:21:03.769Z,9.457231
2023-02-19T04:22:03.759Z,9.457142
2023-02-19T04:23:03.758Z,9.457193
2023-02-19T04:24:03.733Z,9.457073
2023-02-19T04:25:03.759Z,9.457205
2023-02-19T04:26:03.711Z,9.457191
2023-02-19T04:27:03.712Z,9.457147
2023-02-19T04:28:03.717Z,9.457240
2023-02-19T04:29:03.692Z,9.457255
2023-02-19T04:30:03.722Z,9.457261
2023-02-19T04:31:03.729Z,9.457271
2023-02-19T04:32:03.712Z,9.457258
2023-02-19T04:33:03.644Z,9.457160
2023-02-19T04:34:03.632Z,9.457280
2023-02-19T04:35:03.648Z,9.457313
2023-02-19T04:36:03.612Z,9.457149
2023-02-19T04:37:03.613Z,9.457322
2023-02-19T04:38:03.592Z,9.457218
2023-02-19T04:39:03.572Z,9.457219
2023-02-19T04:40:03.606Z,9.457218
2023-02-19T04:41:03.561Z,9.457199
2023-02-19T04:42:03.559Z,9.457272
2023-02-19T04:43:03.567Z,9.457167
2023-02-19T04:44:03.532Z,9.457279
2023-02-19T04:45:03.526Z,9.457196
2023-02-19T04:46:03.565Z,9.457243
2023-02-19T04:47:03.516Z,9.457202
2023-02-19T04:48:03.562Z,9.457134
2023-02-19T04:49:03.491Z,9.457214
2023-02-19T04:50:03.506Z,9.457170
2023-02-19T04:51:03.461Z,9.457157
2023-02-19T04:52:03.464Z,9.457216
2023-02-19T04:53:03.514Z,9.457238
2023-02-19T04:54:03.438Z,9.457192
2023-02-19T04:55:03.470Z,9.457163
2023-02-19T04:56:03.412Z,9.457233
2023-02-19T04:57:03.414Z,9.457223
2023-02-19T04:58:03.468Z,9.457194
2023-02-19T04:59:03.383Z,9.457161
2023-02-19T05:00:03.395Z,9.457028
2023-02-19T05:01:03.377Z,9.457158
2023-02-19T05:02:03.986Z,9.457267
2023-02-19T05:03:03.361Z,9.457360
2023-02-19T05:04:03.421Z,9.457143
2023-02-19T05:05:03.360Z,9.457266
2023-02-19T05:06:03.326Z,9.457296
2023-02-19T05:07:03.336Z,9.457198
2023-02-19T05:08:03.302Z,9.457219
2023-02-19T05:09:03.294Z,9.457412
2023-02-19T05:10:03.333Z,9.457331
2023-02-19T05:11:03.278Z,9.457331
2023-02-19T05:12:03.288Z,9.457176
2023-02-19T05:13:03.248Z,9.457307
2023-02-19T05:14:03.242Z,9.457261
2023-02-19T05:15:03.246Z,9.457200
2023-02-19T05:16:03.291Z,9.457249
2023-02-19T05:17:03.214Z,9.457347
2023-02-19T05:18:03.224Z,9.457322
2023-02-19T05:19:03.218Z,9.457251
2023-02-19T05:20:03.221Z,9.457250
2023-02-19T05:21:03.191Z,9.457243
2023-02-19T05:22:03.159Z,9.457269
2023-02-19T05:23:03.159Z,9.457202
2023-02-19T05:24:03.147Z,9.457314
2023-02-19T05:25:03.169Z,9.457289
2023-02-19T05:26:03.130Z,9.457413
2023-02-19T05:27:03.117Z,9.457323
2023-02-19T05:28:03.100Z,9.457342
2023-02-19T05:29:03.102Z,9.457213
2023-02-19T05:30:03.146Z,9.457162
2023-02-19T05:31:03.118Z,9.457185
2023-02-19T05:32:03.080Z,9.457191
2023-02-19T05:33:03.054Z,9.457216
2023-02-19T05:34:03.052Z,9.457245
2023-02-19T05:35:03.055Z,9.457293
2023-02-19T05:36:03.040Z,9.457245
2023-02-19T05:37:03.015Z,9.457329
2023-02-19T05:38:03.017Z,9.457215
2023-02-19T05:39:03.028Z,9.457288
2023-02-19T05:40:03.115Z,9.457261
2023-02-19T05:41:03.001Z,9.457253
2023-02-19T05:42:02.986Z,9.457193
2023-02-19T05:43:02.973Z,9.457250
2023-02-19T05:44:02.970Z,9.457134
2023-02-19T05:45:02.946Z,9.457240
2023-02-19T05:46:02.991Z,9.457206
2023-02-19T05:47:02.941Z,9.457209
2023-02-19T05:48:02.921Z,9.457276
2023-02-19T05:49:02.907Z,9.457206
2023-02-19T05:50:02.897Z,9.457253
2023-02-19T05:51:02.916Z,9.457180
2023-02-19T05:52:02.885Z,9.457220
2023-02-19T05:53:02.879Z,9.457209
2023-02-19T05:54:02.859Z,9.457215
2023-02-19T05:55:02.853Z,9.457269
2023-02-19T05:56:02.892Z,9.457314
2023-02-19T05:57:02.839Z,9.457306
2023-02-19T05:58:02.822Z,9.457356
2023-02-19T05:59:02.814Z,9.457354
2023-02-19T06:00:02.807Z,9.457364
2023-02-19T06:01:02.819Z,9.457259
2023-02-19T06:02:02.776Z,9.457241
2023-02-19T06:03:02.817Z,9.457244
2023-02-19T06:04:02.778Z,9.457220
2023-02-19T06:05:02.760Z,9.457172
2023-02-19T06:06:02.768Z,9.457238
2023-02-19T06:07:02.745Z,9.457273
2023-02-19T06:08:02.722Z,9.457431
2023-02-19T06:09:02.718Z,9.457277
2023-02-19T06:10:02.703Z,9.457364
2023-02-19T06:11:02.728Z,9.457350
2023-02-19T06:12:02.677Z,9.457308
2023-02-19T06:13:02.693Z,9.457197
2023-02-19T06:14:02.661Z,9.457269
2023-02-19T06:15:03.662Z,9.457223
2023-02-19T06:16:02.713Z,9.457256
2023-02-19T06:17:02.641Z,9.457240
2023-02-19T06:18:02.626Z,9.457234
2023-02-19T06:19:02.625Z,9.457335
2023-02-19T06:20:02.619Z,9.457355
2023-02-19T06:21:02.619Z,9.457315
2023-02-19T06:22:02.596Z,9.457439
2023-02-19T06:23:02.587Z,9.457327
2023-02-19T06:24:02.575Z,9.457351
2023-02-19T06:25:02.571Z,9.457346
2023-02-19T06:26:02.606Z,9.457298
2023-02-19T06:27:02.546Z,9.457355
2023-02-19T06:28:02.538Z,9.457413
2023-02-19T06:29:02.580Z,9.457384
2023-02-19T06:30:02.597Z,9.457273
2023-02-19T06:31:02.553Z,9.457282
2023-02-19T06:32:02.651Z,9.457301
2023-02-19T06:33:02.492Z,9.457286
2023-02-19T06:34:02.488Z,9.457144
2023-02-19T06:35:02.472Z,9.457178
2023-02-19T06:36:02.515Z,9.457232
2023-02-19T06:37:02.467Z,9.457169
2023-02-19T06:38:02.437Z,9.457232
2023-02-19T06:39:02.432Z,9.457262
2023-02-19T06:40:03.425Z,9.457135
2023-02-19T06:41:02.444Z,9.457121
2023-02-19T06:42:02.427Z,9.457250
2023-02-19T06:43:02.402Z,9.457264
2023-02-19T06:44:02.389Z,9.457279
2023-02-19T06:45:02.379Z,9.457373
2023-02-19T06:46:02.396Z,9.457405
2023-02-19T06:47:02.355Z,9.457497
2023-02-19T06:48:02.357Z,9.457368
2023-02-19T06:49:02.334Z,9.457303
2023-02-19T06:50:02.332Z,9.457202
2023-02-19T06:51:02.333Z,9.457171
2023-02-19T06:52:02.303Z,9.457225
2023-02-19T06:53:02.316Z,9.457227
2023-02-19T06:54:02.312Z,9.457272
2023-02-19T06:55:02.275Z,9.457282
2023-02-19T06:56:02.306Z,9.457286
2023-02-19T06:57:02.274Z,9.457147
2023-02-19T06:58:02.245Z,9.457114
2023-02-19T06:59:02.239Z,9.457253
2023-02-19T07:00:02.221Z,9.457212
2023-02-19T07:01:02.334Z,9.457315
2023-02-19T07:02:02.207Z,9.457232
2023-02-19T07:03:03.920Z,9.457250
2023-02-19T07:04:02.230Z,9.457269
2023-02-19T07:05:02.171Z,9.457267
2023-02-19T07:06:02.195Z,9.457244
2023-02-19T07:07:02.157Z,9.457262
2023-02-19T07:08:02.147Z,9.457447
2023-02-19T07:09:02.129Z,9.457303
2023-02-19T07:10:02.127Z,9.457389
2023-02-19T07:11:02.134Z,9.457400
2023-02-19T07:12:02.110Z,9.457356
2023-02-19T07:13:02.112Z,9.457217
2023-02-19T07:14:02.084Z,9.457340
2023-02-19T07:15:02.086Z,9.457323
2023-02-19T07:16:02.207Z,9.457254
2023-02-19T07:17:02.071Z,9.457319
2023-02-19T07:18:02.051Z,9.457248
2023-02-19T07:19:02.034Z,9.457296
2023-02-19T07:20:02.038Z,9.457319
2023-02-19T07:21:02.025Z,9.457296
2023-02-19T07:22:03.001Z,9.457164
2023-02-19T07:23:02.007Z,9.457265
2023-02-19T07:24:01.979Z,9.457299
2023-02-19T07:25:01.971Z,9.457268
2023-02-19T07:26:02.021Z,9.457178
2023-02-19T07:27:01.953Z,9.457207
2023-02-19T07:28:01.948Z,9.457268
2023-02-19T07:29:01.939Z,9.457253
2023-02-19T07:30:02.010Z,9.457270
2023-02-19T07:31:01.972Z,9.457473
2023-02-19T07:32:01.967Z,9.457613
2023-02-19T07:33:01.915Z,9.457458
2023-02-19T07:34:01.890Z,9.457438
2023-02-19T07:35:01.894Z,9.457391
2023-02-19T07:36:01.890Z,9.457325
2023-02-19T07:37:02.884Z,9.457283
2023-02-19T07:38:01.859Z,9.457316
2023-02-19T07:39:01.855Z,9.457418
2023-02-19T07:40:01.823Z,9.457442
2023-02-19T07:41:01.845Z,9.457355
2023-02-19T07:42:01.811Z,9.457244
2023-02-19T07:43:01.806Z,9.457282
2023-02-19T07:44:01.810Z,9.457236
2023-02-19T07:45:01.790Z,9.457422
2023-02-19T07:46:01.830Z,9.457419
2023-02-19T07:47:01.766Z,9.457397
2023-02-19T07:48:01.786Z,9.457678
2023-02-19T07:49:01.749Z,9.457426
2023-02-19T07:50:01.764Z,9.457527
2023-02-19T07:51:01.765Z,9.457499
2023-02-19T07:52:01.740Z,9.457305
2023-02-19T07:53:01.714Z,9.457274
2023-02-19T07:54:01.715Z,9.457364
2023-02-19T07:55:01.708Z,9.457390
2023-02-19T07:56:01.714Z,9.457595
2023-02-19T07:57:01.692Z,9.457807
2023-02-19T07:58:01.685Z,9.457929
2023-02-19T07:59:01.662Z,9.457768
2023-02-19T08:00:01.674Z,9.457390
2023-02-19T08:01:01.731Z,9.457265
2023-02-19T08:02:01.627Z,9.457378
2023-02-19T08:03:01.687Z,9.457318
2023-02-19T08:04:01.606Z,9.457293
2023-02-19T08:05:01.612Z,9.457294
2023-02-19T08:06:01.604Z,9.457273
2023-02-19T08:07:01.581Z,9.457294
2023-02-19T08:08:01.579Z,9.457371
2023-02-19T08:09:01.556Z,9.457343
2023-02-19T08:10:01.565Z,9.457385
2023-02-19T08:11:01.552Z,9.457345
2023-02-19T08:12:01.534Z,9.457278
2023-02-19T08:13:01.610Z,9.457278
2023-02-19T08:14:01.506Z,9.457374
2023-02-19T08:15:01.498Z,9.457304
2023-02-19T08:16:15.653Z,9.457245
2023-02-19T08:17:03.577Z,9.457257
2023-02-19T08:18:01.455Z,9.457363
2023-02-19T08:19:01.454Z,9.457354
2023-02-19T08:20:01.456Z,9.457388
2023-02-19T08:21:01.446Z,9.457271
2023-02-19T08:22:01.431Z,9.457290
2023-02-19T08:23:01.407Z,9.457256
2023-02-19T08:24:01.425Z,9.457351
2023-02-19T08:25:01.424Z,9.457381
2023-02-19T08:26:01.377Z,9.457333
2023-02-19T08:27:01.374Z,9.457375
2023-02-19T08:28:01.371Z,9.457345
2023-02-19T08:29:01.352Z,9.457205
2023-02-19T08:30:01.376Z,9.457238
2023-02-19T08:31:01.385Z,9.457344
2023-02-19T08:32:01.353Z,9.457349
2023-02-19T08:33:02.212Z,9.457330
2023-02-19T08:34:02.303Z,9.457273
2023-02-19T08:35:01.284Z,9.457311
2023-02-19T08:36:01.294Z,9.457104
2023-02-19T08:37:01.269Z,9.457155
2023-02-19T08:38:01.257Z,9.457228
2023-02-19T08:39:01.248Z,9.457212
2023-02-19T08:40:01.249Z,9.457262
2023-02-19T08:41:01.244Z,9.457235
2023-02-19T08:42:01.219Z,9.457338
2023-02-19T08:43:01.218Z,9.457370
2023-02-19T08:44:01.207Z,9.457191
2023-02-19T08:45:01.214Z,9.457324
2023-02-19T08:46:01.200Z,9.457299
2023-02-19T08:47:01.180Z,9.457329
2023-02-19T08:48:01.162Z,9.457303
2023-02-19T08:49:01.150Z,9.457194
2023-02-19T08:50:01.158Z,9.457264
2023-02-19T08:51:01.132Z,9.457295
2023-02-19T08:52:01.125Z,9.457357
2023-02-19T08:53:01.117Z,9.457326
2023-02-19T08:54:01.116Z,9.457277
2023-02-19T08:55:01.178Z,9.457213
2023-02-19T08:56:01.097Z,9.457275
2023-02-19T08:57:01.079Z,9.457254
2023-02-19T08:58:01.065Z,9.457333
2023-02-19T08:59:01.046Z,9.457310
2023-02-19T09:00:01.056Z,9.457197
2023-02-19T09:01:01.103Z,9.457219
2023-02-19T09:02:01.023Z,9.457227
2023-02-19T09:03:01.010Z,9.457275
2023-02-19T09:04:01.100Z,9.457416
2023-02-19T09:05:01.019Z,9.457472
2023-02-19T09:06:02.002Z,9.457451
2023-02-19T09:07:00.966Z,9.457315
2023-02-19T09:08:00.959Z,9.457243
2023-02-19T09:09:00.951Z,9.457249
2023-02-19T09:10:00.953Z,9.457211
2023-02-19T09:11:00.952Z,9.457258
2023-02-19T09:12:00.937Z,9.457225
2023-02-19T09:13:00.907Z,9.457245
2023-02-19T09:14:01.909Z,9.457241
2023-02-19T09:15:00.931Z,9.457211
2023-02-19T09:16:00.961Z,9.457225
2023-02-19T09:17:00.874Z,9.457322
2023-02-19T09:18:00.869Z,9.457253
2023-02-19T09:19:00.863Z,9.457152
2023-02-19T09:20:00.875Z,9.457177
2023-02-19T09:21:00.831Z,9.457243
2023-02-19T09:22:00.840Z,9.457272
2023-02-19T09:23:00.820Z,9.457193
2023-02-19T09:24:00.812Z,9.457287
2023-02-19T09:25:00.794Z,9.457303
2023-02-19T09:26:00.798Z,9.457305
2023-02-19T09:27:00.804Z,9.457150
2023-02-19T09:28:00.773Z,9.457220
2023-02-19T09:29:00.759Z,9.457211
2023-02-19T09:30:00.817Z,9.457204
2023-02-19T09:31:00.768Z,9.457159
2023-02-19T09:32:00.789Z,9.457211
2023-02-19T09:33:00.725Z,9.457250
2023-02-19T09:34:00.725Z,9.457308
2023-02-19T09:35:00.696Z,9.457267
2023-02-19T09:36:00.705Z,9.457236
2023-02-19T09:37:00.746Z,9.457319
2023-02-19T09:38:00.697Z,9.457259
2023-02-19T09:39:00.674Z,9.457308
2023-02-19T09:40:00.669Z,9.457346
2023-02-19T09:41:00.670Z,9.457391
2023-02-19T09:42:00.668Z,9.457392
2023-02-19T09:43:03.711Z,9.457388
2023-02-19T09:44:33.021Z,9.457317
2023-02-19T09:45:00.614Z,9.457237
2023-02-19T09:46:00.627Z,9.457248
2023-02-19T09:47:00.647Z,9.457241
2023-02-19T09:48:00.584Z,9.457278
2023-02-19T09:49:00.568Z,9.457260
2023-02-19T09:50:00.560Z,9.457149
2023-02-19T09:51:00.554Z,9.457320
2023-02-19T09:52:00.573Z,9.457357
2023-02-19T09:53:00.543Z,9.457477
2023-02-19T09:54:00.529Z,9.457403
2023-02-19T09:55:00.542Z,9.457462
2023-02-19T09:56:00.518Z,9.457351
2023-02-19T09:57:00.581Z,9.457276
2023-02-19T09:58:00.575Z,9.457373
2023-02-19T09:59:00.478Z,9.457434
2023-02-19T10:00:00.474Z,9.457430
2023-02-19T10:01:00.468Z,9.457313
2023-02-19T10:02:00.480Z,9.457237
2023-02-19T10:03:00.432Z,9.457279
2023-02-19T10:04:00.430Z,9.457428
2023-02-19T10:05:00.430Z,9.457297
2023-02-19T10:06:00.412Z,9.457386
2023-02-19T10:07:00.425Z,9.457423
2023-02-19T10:08:00.382Z,9.457404
2023-02-19T10:09:00.377Z,9.457618
2023-02-19T10:10:00.369Z,9.457573
2023-02-19T10:11:00.356Z,9.457337
2023-02-19T10:12:00.365Z,9.457322
2023-02-19T10:13:00.345Z,9.457406
2023-02-19T10:14:00.326Z,9.457608
2023-02-19T10:15:00.316Z,9.457544
2023-02-19T10:16:00.340Z,9.457584
2023-02-19T10:17:00.314Z,9.457399
2023-02-19T10:18:00.288Z,9.457448
2023-02-19T10:19:00.276Z,9.457435
2023-02-19T10:20:00.265Z,9.457373
2023-02-19T10:21:00.241Z,9.457307
2023-02-19T10:22:00.260Z,9.457401
2023-02-19T10:23:00.230Z,9.457461
2023-02-19T10:24:00.255Z,9.457417
2023-02-19T10:25:00.211Z,9.457346
2023-02-19T10:26:00.205Z,9.457354
2023-02-19T10:27:00.205Z,9.457355
2023-02-19T10:28:00.211Z,9.457280
2023-02-19T10:29:00.180Z,9.457212
2023-02-19T10:30:00.314Z,9.457163
2023-02-19T10:31:00.235Z,9.457230
2023-02-19T10:32:00.314Z,9.457202
2023-02-19T10:33:00.165Z,9.457372
2023-02-19T10:34:00.123Z,9.457341
2023-02-19T10:35:00.111Z,9.457323
2023-02-19T10:36:00.109Z,9.457314
2023-02-19T10:37:00.117Z,9.457264
2023-02-19T10:38:00.124Z,9.457254
2023-02-19T10:39:00.086Z,9.457278
2023-02-19T10:40:00.139Z,9.457181
2023-02-19T10:41:00.086Z,9.457191
2023-02-19T10:42:00.096Z,9.457186
2023-02-19T10:43:00.045Z,9.457189
2023-02-19T10:44:00.048Z,9.457135
2023-02-19T10:45:00.020Z,9.457150
2023-02-19T10:46:00.010Z,9.457084
2023-02-19T10:47:00.054Z,9.457195
2023-02-19T10:48:00.004Z,9.457173
2023-02-19T10:49:00.001Z,9.457171
2023-02-19T10:50:00.805Z,9.457228
2023-02-19T10:50:59.964Z,9.457160
2023-02-19T10:51:59.982Z,9.457350
2023-02-19T10:52:59.952Z,9.457274
2023-02-19T10:53:59.932Z,9.457122
2023-02-19T10:54:59.926Z,9.457304
2023-02-19T10:55:59.919Z,9.457496
2023-02-19T10:56:59.923Z,9.457454
2023-02-19T10:57:59.897Z,9.457416
2023-02-19T10:58:59.909Z,9.457254
2023-02-19T10:59:59.878Z,9.457207
2023-02-19T11:00:59.865Z,9.457174
2023-02-19T11:01:59.921Z,9.457127
2023-02-19T11:02:59.844Z,9.457322
2023-02-19T11:03:59.851Z,9.457214
2023-02-19T11:04:59.820Z,9.457148
2023-02-19T11:05:59.834Z,9.457209
2023-02-19T11:06:59.877Z,9.457309
2023-02-19T11:07:59.800Z,9.457198
2023-02-19T11:08:59.786Z,9.457149
2023-02-19T11:09:59.784Z,9.457037
2023-02-19T11:10:59.762Z,9.457197
2023-02-19T11:11:59.778Z,9.457150
2023-02-19T11:12:59.756Z,9.457192
2023-02-19T11:13:59.737Z,9.457289
2023-02-19T11:14:59.729Z,9.457225
2023-02-19T11:15:59.797Z,9.457245
2023-02-19T11:16:59.720Z,9.457301
2023-02-19T11:17:59.692Z,9.457229
2023-02-19T11:18:59.680Z,9.457152
2023-02-19T11:19:59.673Z,9.457194
2023-02-19T11:20:59.669Z,9.457241
2023-02-19T11:21:59.670Z,9.457231
2023-02-19T11:22:59.639Z,9.457357
2023-02-19T11:24:00.762Z,9.457191
2023-02-19T11:25:00.629Z,9.457220
2023-02-19T11:25:59.613Z,9.457341
2023-02-19T11:26:59.628Z,9.457076
2023-02-19T11:27:59.590Z,9.457225
2023-02-19T11:28:59.608Z,9.457192
2023-02-19T11:29:59.616Z,9.457043
2023-02-19T11:30:59.659Z,9.457253
2023-02-19T11:31:59.685Z,9.457333
2023-02-19T11:32:59.538Z,9.457329
2023-02-19T11:33:59.547Z,9.457376
2023-02-19T11:34:59.549Z,9.457273
2023-02-19T11:35:59.540Z,9.457220
2023-02-19T11:36:59.553Z,9.457212
2023-02-19T11:37:59.504Z,9.457290
2023-02-19T11:38:59.495Z,9.457281
2023-02-19T11:39:59.488Z,9.457180
2023-02-19T11:40:59.472Z,9.457123
2023-02-19T11:41:59.467Z,9.457153
2023-02-19T11:42:59.469Z,9.457280
2023-02-19T11:43:59.446Z,9.457285